sensor_id;sensor_type;location;lat;lon;timestamp;P1;durP1;ratioP1;P2;durP2;ratioP2
61015;SDS011;46902;52.920;6.536;2023-05-14T00:00:47;16.05;;;8.32;;
61015;SDS011;46902;52.920;6.536;2023-05-14T00:03:13;13.90;;;8.60;;
61015;SDS011;46902;52.920;6.536;2023-05-14T00:05:39;11.77;;;8.82;;
61015;SDS011;46902;52.920;6.536;2023-05-14T00:08:05;15.27;;;8.18;;
61015;SDS011;46902;52.920;6.536;2023-05-14T00:10:31;14.75;;;8.77;;
61015;SDS011;46902;52.920;6.536;2023-05-14T00:12:56;14.90;;;9.43;;
61015;SDS011;46902;52.920;6.536;2023-05-14T00:15:22;15.88;;;8.85;;
61015;SDS011;46902;52.920;6.536;2023-05-14T00:17:47;16.27;;;9.00;;
61015;SDS011;46902;52.920;6.536;2023-05-14T00:20:13;12.80;;;8.73;;
61015;SDS011;46902;52.920;6.536;2023-05-14T00:22:39;12.85;;;8.55;;
61015;SDS011;46902;52.920;6.536;2023-05-14T00:25:05;16.30;;;8.93;;
61015;SDS011;46902;52.920;6.536;2023-05-14T00:27:32;13.15;;;8.57;;
61015;SDS011;46902;52.920;6.536;2023-05-14T00:29:58;14.30;;;9.15;;
61015;SDS011;46902;52.920;6.536;2023-05-14T00:32:24;13.25;;;8.45;;
61015;SDS011;46902;52.920;6.536;2023-05-14T00:34:49;12.35;;;8.30;;
61015;SDS011;46902;52.920;6.536;2023-05-14T00:37:15;15.50;;;8.43;;
61015;SDS011;46902;52.920;6.536;2023-05-14T00:39:41;12.35;;;8.95;;
61015;SDS011;46902;52.920;6.536;2023-05-14T00:42:06;15.20;;;8.50;;
61015;SDS011;46902;52.920;6.536;2023-05-14T00:44:32;17.55;;;8.95;;
61015;SDS011;46902;52.920;6.536;2023-05-14T00:46:58;14.38;;;8.75;;
61015;SDS011;46902;52.920;6.536;2023-05-14T00:49:24;16.80;;;9.43;;
61015;SDS011;46902;52.920;6.536;2023-05-14T00:51:51;10.88;;;8.13;;
61015;SDS011;46902;52.920;6.536;2023-05-14T00:54:17;14.70;;;9.65;;
61015;SDS011;46902;52.920;6.536;2023-05-14T00:56:45;15.65;;;9.60;;
61015;SDS011;46902;52.920;6.536;2023-05-14T00:59:11;15.25;;;9.20;;
61015;SDS011;46902;52.920;6.536;2023-05-14T01:01:37;18.95;;;9.43;;
61015;SDS011;46902;52.920;6.536;2023-05-14T01:04:03;15.93;;;8.88;;
61015;SDS011;46902;52.920;6.536;2023-05-14T01:09:09;12.10;;;9.30;;
61015;SDS011;46902;52.920;6.536;2023-05-14T01:14:20;16.45;;;9.35;;
61015;SDS011;46902;52.920;6.536;2023-05-14T01:16:58;17.30;;;9.45;;
61015;SDS011;46902;52.920;6.536;2023-05-14T01:19:42;14.93;;;9.32;;
61015;SDS011;46902;52.920;6.536;2023-05-14T01:22:09;15.77;;;9.38;;
61015;SDS011;46902;52.920;6.536;2023-05-14T01:24:36;13.85;;;8.82;;
61015;SDS011;46902;52.920;6.536;2023-05-14T01:27:21;13.25;;;8.68;;
61015;SDS011;46902;52.920;6.536;2023-05-14T01:30:12;15.52;;;9.25;;
61015;SDS011;46902;52.920;6.536;2023-05-14T01:32:46;15.90;;;8.57;;
61015;SDS011;46902;52.920;6.536;2023-05-14T01:35:14;15.43;;;9.18;;
61015;SDS011;46902;52.920;6.536;2023-05-14T01:37:40;16.90;;;9.13;;
61015;SDS011;46902;52.920;6.536;2023-05-14T01:40:07;18.50;;;10.10;;
61015;SDS011;46902;52.920;6.536;2023-05-14T01:42:34;12.85;;;9.00;;
61015;SDS011;46902;52.920;6.536;2023-05-14T01:45:01;16.30;;;9.77;;
61015;SDS011;46902;52.920;6.536;2023-05-14T01:47:27;14.73;;;9.02;;
61015;SDS011;46902;52.920;6.536;2023-05-14T01:49:53;16.77;;;9.32;;
61015;SDS011;46902;52.920;6.536;2023-05-14T01:52:18;16.75;;;9.27;;
61015;SDS011;46902;52.920;6.536;2023-05-14T01:54:45;14.60;;;9.15;;
61015;SDS011;46902;52.920;6.536;2023-05-14T01:57:11;13.45;;;9.23;;
61015;SDS011;46902;52.920;6.536;2023-05-14T01:59:37;17.75;;;9.68;;
61015;SDS011;46902;52.920;6.536;2023-05-14T02:02:03;16.00;;;9.13;;
61015;SDS011;46902;52.920;6.536;2023-05-14T02:04:28;15.63;;;8.73;;
61015;SDS011;46902;52.920;6.536;2023-05-14T02:06:54;14.60;;;8.73;;
61015;SDS011;46902;52.920;6.536;2023-05-14T02:09:20;19.08;;;8.90;;
61015;SDS011;46902;52.920;6.536;2023-05-14T02:11:45;13.48;;;9.30;;
61015;SDS011;46902;52.920;6.536;2023-05-14T02:14:11;12.55;;;9.20;;
61015;SDS011;46902;52.920;6.536;2023-05-14T02:16:36;15.00;;;8.75;;
61015;SDS011;46902;52.920;6.536;2023-05-14T02:19:02;18.17;;;9.18;;
61015;SDS011;46902;52.920;6.536;2023-05-14T02:21:28;13.20;;;8.73;;
61015;SDS011;46902;52.920;6.536;2023-05-14T02:23:53;15.75;;;8.85;;
61015;SDS011;46902;52.920;6.536;2023-05-14T02:26:20;13.32;;;9.18;;
61015;SDS011;46902;52.920;6.536;2023-05-14T02:28:45;18.20;;;9.02;;
61015;SDS011;46902;52.920;6.536;2023-05-14T02:31:11;13.02;;;8.93;;
61015;SDS011;46902;52.920;6.536;2023-05-14T02:33:36;16.95;;;9.43;;
61015;SDS011;46902;52.920;6.536;2023-05-14T02:36:02;13.80;;;8.75;;
61015;SDS011;46902;52.920;6.536;2023-05-14T02:38:28;13.70;;;9.18;;
61015;SDS011;46902;52.920;6.536;2023-05-14T02:40:53;15.55;;;9.70;;
61015;SDS011;46902;52.920;6.536;2023-05-14T02:43:19;16.15;;;9.13;;
61015;SDS011;46902;52.920;6.536;2023-05-14T02:45:45;15.27;;;9.35;;
61015;SDS011;46902;52.920;6.536;2023-05-14T02:48:11;15.63;;;8.98;;
61015;SDS011;46902;52.920;6.536;2023-05-14T02:50:37;13.00;;;8.57;;
61015;SDS011;46902;52.920;6.536;2023-05-14T02:53:02;15.80;;;8.63;;
61015;SDS011;46902;52.920;6.536;2023-05-14T02:55:28;16.23;;;8.40;;
61015;SDS011;46902;52.920;6.536;2023-05-14T02:57:53;14.27;;;8.07;;
61015;SDS011;46902;52.920;6.536;2023-05-14T03:00:20;15.30;;;7.75;;
61015;SDS011;46902;52.920;6.536;2023-05-14T03:02:46;13.13;;;7.70;;
61015;SDS011;46902;52.920;6.536;2023-05-14T03:05:12;11.82;;;7.45;;
61015;SDS011;46902;52.920;6.536;2023-05-14T03:07:37;10.75;;;7.47;;
61015;SDS011;46902;52.920;6.536;2023-05-14T03:10:03;12.00;;;7.50;;
61015;SDS011;46902;52.920;6.536;2023-05-14T03:12:29;12.38;;;7.70;;
61015;SDS011;46902;52.920;6.536;2023-05-14T03:14:55;12.50;;;7.55;;
61015;SDS011;46902;52.920;6.536;2023-05-14T03:17:21;10.63;;;7.45;;
61015;SDS011;46902;52.920;6.536;2023-05-14T03:19:47;11.73;;;7.43;;
61015;SDS011;46902;52.920;6.536;2023-05-14T03:22:12;11.15;;;7.18;;
61015;SDS011;46902;52.920;6.536;2023-05-14T03:24:38;11.38;;;7.50;;
61015;SDS011;46902;52.920;6.536;2023-05-14T03:27:04;11.18;;;7.22;;
61015;SDS011;46902;52.920;6.536;2023-05-14T03:29:30;12.45;;;6.63;;
61015;SDS011;46902;52.920;6.536;2023-05-14T03:31:56;12.68;;;7.70;;
61015;SDS011;46902;52.920;6.536;2023-05-14T03:34:21;11.85;;;7.22;;
61015;SDS011;46902;52.920;6.536;2023-05-14T03:36:47;11.02;;;6.70;;
61015;SDS011;46902;52.920;6.536;2023-05-14T03:39:13;9.20;;;7.05;;
61015;SDS011;46902;52.920;6.536;2023-05-14T03:41:45;12.45;;;6.88;;
61015;SDS011;46902;52.920;6.536;2023-05-14T03:44:11;11.60;;;7.50;;
61015;SDS011;46902;52.920;6.536;2023-05-14T03:46:37;11.60;;;6.88;;
61015;SDS011;46902;52.920;6.536;2023-05-14T03:49:03;12.45;;;7.55;;
61015;SDS011;46902;52.920;6.536;2023-05-14T03:51:28;13.30;;;7.30;;
61015;SDS011;46902;52.920;6.536;2023-05-14T03:53:55;9.77;;;6.85;;
61015;SDS011;46902;52.920;6.536;2023-05-14T03:56:22;11.00;;;7.10;;
61015;SDS011;46902;52.920;6.536;2023-05-14T03:58:48;13.80;;;7.32;;
61015;SDS011;46902;52.920;6.536;2023-05-14T04:01:13;13.15;;;6.93;;
61015;SDS011;46902;52.920;6.536;2023-05-14T04:03:39;10.85;;;7.43;;
61015;SDS011;46902;52.920;6.536;2023-05-14T04:06:05;12.80;;;7.80;;
61015;SDS011;46902;52.920;6.536;2023-05-14T04:08:30;11.10;;;7.63;;
61015;SDS011;46902;52.920;6.536;2023-05-14T04:10:56;13.25;;;7.82;;
61015;SDS011;46902;52.920;6.536;2023-05-14T04:13:22;13.18;;;8.57;;
61015;SDS011;46902;52.920;6.536;2023-05-14T04:15:47;10.45;;;7.32;;
61015;SDS011;46902;52.920;6.536;2023-05-14T04:18:13;11.70;;;7.72;;
61015;SDS011;46902;52.920;6.536;2023-05-14T04:20:38;12.43;;;8.15;;
61015;SDS011;46902;52.920;6.536;2023-05-14T04:23:04;10.77;;;7.85;;
61015;SDS011;46902;52.920;6.536;2023-05-14T04:25:30;11.23;;;7.68;;
61015;SDS011;46902;52.920;6.536;2023-05-14T04:27:56;15.73;;;7.88;;
61015;SDS011;46902;52.920;6.536;2023-05-14T04:30:22;9.32;;;7.55;;
61015;SDS011;46902;52.920;6.536;2023-05-14T04:32:48;13.18;;;8.48;;
61015;SDS011;46902;52.920;6.536;2023-05-14T04:35:13;13.02;;;8.52;;
61015;SDS011;46902;52.920;6.536;2023-05-14T04:37:39;13.93;;;8.38;;
61015;SDS011;46902;52.920;6.536;2023-05-14T04:40:05;11.07;;;8.20;;
61015;SDS011;46902;52.920;6.536;2023-05-14T04:42:35;16.17;;;7.90;;
61015;SDS011;46902;52.920;6.536;2023-05-14T04:45:01;15.27;;;8.23;;
61015;SDS011;46902;52.920;6.536;2023-05-14T04:47:29;13.50;;;8.27;;
61015;SDS011;46902;52.920;6.536;2023-05-14T04:49:55;12.50;;;8.35;;
61015;SDS011;46902;52.920;6.536;2023-05-14T04:52:21;14.27;;;8.48;;
61015;SDS011;46902;52.920;6.536;2023-05-14T04:54:48;11.32;;;8.55;;
61015;SDS011;46902;52.920;6.536;2023-05-14T04:57:13;10.45;;;8.27;;
61015;SDS011;46902;52.920;6.536;2023-05-14T04:59:39;11.55;;;7.88;;
61015;SDS011;46902;52.920;6.536;2023-05-14T05:02:05;12.48;;;8.50;;
61015;SDS011;46902;52.920;6.536;2023-05-14T05:04:30;13.38;;;8.60;;
61015;SDS011;46902;52.920;6.536;2023-05-14T05:06:56;13.05;;;8.13;;
61015;SDS011;46902;52.920;6.536;2023-05-14T05:09:21;12.50;;;8.18;;
61015;SDS011;46902;52.920;6.536;2023-05-14T05:11:47;12.75;;;8.60;;
61015;SDS011;46902;52.920;6.536;2023-05-14T05:14:12;16.15;;;8.93;;
61015;SDS011;46902;52.920;6.536;2023-05-14T05:16:38;13.75;;;8.65;;
61015;SDS011;46902;52.920;6.536;2023-05-14T05:19:04;15.07;;;9.32;;
61015;SDS011;46902;52.920;6.536;2023-05-14T05:21:29;14.82;;;8.50;;
61015;SDS011;46902;52.920;6.536;2023-05-14T05:23:55;17.17;;;8.77;;
61015;SDS011;46902;52.920;6.536;2023-05-14T05:26:21;18.05;;;9.90;;
61015;SDS011;46902;52.920;6.536;2023-05-14T05:28:48;15.85;;;9.68;;
61015;SDS011;46902;52.920;6.536;2023-05-14T05:31:13;18.10;;;9.55;;
61015;SDS011;46902;52.920;6.536;2023-05-14T05:33:40;16.13;;;10.15;;
61015;SDS011;46902;52.920;6.536;2023-05-14T05:36:06;15.20;;;9.70;;
61015;SDS011;46902;52.920;6.536;2023-05-14T05:38:32;17.35;;;10.23;;
61015;SDS011;46902;52.920;6.536;2023-05-14T05:40:57;18.05;;;9.65;;
61015;SDS011;46902;52.920;6.536;2023-05-14T05:43:23;17.42;;;10.13;;
61015;SDS011;46902;52.920;6.536;2023-05-14T05:45:48;14.63;;;10.07;;
61015;SDS011;46902;52.920;6.536;2023-05-14T05:48:14;22.13;;;10.88;;
61015;SDS011;46902;52.920;6.536;2023-05-14T05:50:39;19.35;;;11.30;;
61015;SDS011;46902;52.920;6.536;2023-05-14T05:53:05;19.67;;;11.65;;
61015;SDS011;46902;52.920;6.536;2023-05-14T05:55:31;16.67;;;11.10;;
61015;SDS011;46902;52.920;6.536;2023-05-14T05:57:56;26.27;;;12.40;;
61015;SDS011;46902;52.920;6.536;2023-05-14T06:00:22;21.92;;;11.85;;
61015;SDS011;46902;52.920;6.536;2023-05-14T06:02:48;20.35;;;11.80;;
61015;SDS011;46902;52.920;6.536;2023-05-14T06:05:13;21.08;;;11.32;;
61015;SDS011;46902;52.920;6.536;2023-05-14T06:07:39;20.75;;;11.10;;
61015;SDS011;46902;52.920;6.536;2023-05-14T06:10:05;21.77;;;11.38;;
61015;SDS011;46902;52.920;6.536;2023-05-14T06:12:31;18.52;;;11.15;;
61015;SDS011;46902;52.920;6.536;2023-05-14T06:14:56;23.27;;;11.25;;
61015;SDS011;46902;52.920;6.536;2023-05-14T06:17:25;22.33;;;10.30;;
61015;SDS011;46902;52.920;6.536;2023-05-14T06:19:51;22.88;;;10.40;;
61015;SDS011;46902;52.920;6.536;2023-05-14T06:22:16;23.67;;;10.70;;
61015;SDS011;46902;52.920;6.536;2023-05-14T06:24:42;17.02;;;9.23;;
61015;SDS011;46902;52.920;6.536;2023-05-14T06:27:08;21.17;;;9.88;;
61015;SDS011;46902;52.920;6.536;2023-05-14T06:29:35;22.67;;;8.48;;
61015;SDS011;46902;52.920;6.536;2023-05-14T06:32:02;17.75;;;8.57;;
61015;SDS011;46902;52.920;6.536;2023-05-14T06:34:28;17.40;;;7.60;;
61015;SDS011;46902;52.920;6.536;2023-05-14T06:36:54;19.95;;;7.85;;
61015;SDS011;46902;52.920;6.536;2023-05-14T06:39:19;13.95;;;7.20;;
61015;SDS011;46902;52.920;6.536;2023-05-14T06:41:45;13.77;;;6.70;;
61015;SDS011;46902;52.920;6.536;2023-05-14T06:44:11;15.68;;;7.15;;
61015;SDS011;46902;52.920;6.536;2023-05-14T06:46:36;17.27;;;6.70;;
61015;SDS011;46902;52.920;6.536;2023-05-14T06:49:02;15.48;;;7.28;;
61015;SDS011;46902;52.920;6.536;2023-05-14T06:51:28;15.98;;;6.72;;
61015;SDS011;46902;52.920;6.536;2023-05-14T06:53:56;15.50;;;6.43;;
61015;SDS011;46902;52.920;6.536;2023-05-14T06:56:22;12.82;;;5.68;;
61015;SDS011;46902;52.920;6.536;2023-05-14T06:58:47;18.00;;;6.45;;
61015;SDS011;46902;52.920;6.536;2023-05-14T07:01:13;17.30;;;6.72;;
61015;SDS011;46902;52.920;6.536;2023-05-14T07:03:39;16.63;;;6.63;;
61015;SDS011;46902;52.920;6.536;2023-05-14T07:06:04;18.85;;;6.63;;
61015;SDS011;46902;52.920;6.536;2023-05-14T07:08:30;15.48;;;5.57;;
61015;SDS011;46902;52.920;6.536;2023-05-14T07:10:56;17.08;;;5.72;;
61015;SDS011;46902;52.920;6.536;2023-05-14T07:13:22;17.08;;;5.65;;
61015;SDS011;46902;52.920;6.536;2023-05-14T07:15:48;12.77;;;5.57;;
61015;SDS011;46902;52.920;6.536;2023-05-14T07:18:15;12.88;;;5.20;;
61015;SDS011;46902;52.920;6.536;2023-05-14T07:20:40;15.07;;;4.95;;
61015;SDS011;46902;52.920;6.536;2023-05-14T07:23:06;16.20;;;5.35;;
61015;SDS011;46902;52.920;6.536;2023-05-14T07:25:32;16.42;;;5.18;;
61015;SDS011;46902;52.920;6.536;2023-05-14T07:27:57;14.40;;;5.20;;
61015;SDS011;46902;52.920;6.536;2023-05-14T07:30:23;13.05;;;5.28;;
61015;SDS011;46902;52.920;6.536;2023-05-14T07:32:49;20.90;;;5.90;;
61015;SDS011;46902;52.920;6.536;2023-05-14T07:35:14;14.20;;;5.20;;
61015;SDS011;46902;52.920;6.536;2023-05-14T07:37:40;15.02;;;4.97;;
61015;SDS011;46902;52.920;6.536;2023-05-14T07:40:07;12.73;;;5.35;;
61015;SDS011;46902;52.920;6.536;2023-05-14T07:42:33;15.02;;;4.78;;
61015;SDS011;46902;52.920;6.536;2023-05-14T07:44:58;12.95;;;5.15;;
61015;SDS011;46902;52.920;6.536;2023-05-14T07:47:24;12.90;;;4.70;;
61015;SDS011;46902;52.920;6.536;2023-05-14T07:49:53;14.02;;;4.97;;
61015;SDS011;46902;52.920;6.536;2023-05-14T07:52:19;14.32;;;5.30;;
61015;SDS011;46902;52.920;6.536;2023-05-14T07:54:45;12.48;;;5.13;;
61015;SDS011;46902;52.920;6.536;2023-05-14T07:57:10;14.02;;;5.00;;
61015;SDS011;46902;52.920;6.536;2023-05-14T07:59:36;14.27;;;4.75;;
61015;SDS011;46902;52.920;6.536;2023-05-14T08:02:01;13.98;;;4.90;;
61015;SDS011;46902;52.920;6.536;2023-05-14T08:04:27;9.98;;;4.80;;
61015;SDS011;46902;52.920;6.536;2023-05-14T08:06:53;15.70;;;4.93;;
61015;SDS011;46902;52.920;6.536;2023-05-14T08:09:20;12.77;;;4.45;;
61015;SDS011;46902;52.920;6.536;2023-05-14T08:11:45;10.57;;;4.07;;
61015;SDS011;46902;52.920;6.536;2023-05-14T08:14:11;9.90;;;4.05;;
61015;SDS011;46902;52.920;6.536;2023-05-14T08:16:37;12.98;;;4.47;;
61015;SDS011;46902;52.920;6.536;2023-05-14T08:19:02;14.55;;;4.35;;
61015;SDS011;46902;52.920;6.536;2023-05-14T08:21:31;14.40;;;4.28;;
61015;SDS011;46902;52.920;6.536;2023-05-14T08:23:57;9.27;;;3.72;;
61015;SDS011;46902;52.920;6.536;2023-05-14T08:26:22;9.57;;;4.38;;
61015;SDS011;46902;52.920;6.536;2023-05-14T08:28:48;13.45;;;4.18;;
61015;SDS011;46902;52.920;6.536;2023-05-14T08:31:14;10.23;;;4.00;;
61015;SDS011;46902;52.920;6.536;2023-05-14T08:33:39;10.05;;;4.15;;
61015;SDS011;46902;52.920;6.536;2023-05-14T08:36:05;16.67;;;4.00;;
61015;SDS011;46902;52.920;6.536;2023-05-14T08:38:31;10.68;;;4.00;;
61015;SDS011;46902;52.920;6.536;2023-05-14T08:40:57;11.02;;;4.03;;
61015;SDS011;46902;52.920;6.536;2023-05-14T08:43:25;13.20;;;4.15;;
61015;SDS011;46902;52.920;6.536;2023-05-14T08:45:57;11.10;;;4.63;;
61015;SDS011;46902;52.920;6.536;2023-05-14T08:48:31;15.63;;;4.63;;
61015;SDS011;46902;52.920;6.536;2023-05-14T08:50:58;10.77;;;4.32;;
61015;SDS011;46902;52.920;6.536;2023-05-14T08:53:25;11.05;;;4.00;;
61015;SDS011;46902;52.920;6.536;2023-05-14T08:55:50;13.95;;;3.85;;
61015;SDS011;46902;52.920;6.536;2023-05-14T08:58:18;9.70;;;3.75;;
61015;SDS011;46902;52.920;6.536;2023-05-14T09:00:44;10.73;;;3.67;;
61015;SDS011;46902;52.920;6.536;2023-05-14T09:03:09;12.63;;;4.18;;
61015;SDS011;46902;52.920;6.536;2023-05-14T09:05:36;10.18;;;4.13;;
61015;SDS011;46902;52.920;6.536;2023-05-14T09:08:04;10.15;;;4.03;;
61015;SDS011;46902;52.920;6.536;2023-05-14T09:10:29;15.70;;;4.47;;
61015;SDS011;46902;52.920;6.536;2023-05-14T09:12:56;12.07;;;3.85;;
61015;SDS011;46902;52.920;6.536;2023-05-14T09:15:22;11.88;;;4.15;;
61015;SDS011;46902;52.920;6.536;2023-05-14T09:17:50;12.65;;;4.13;;
61015;SDS011;46902;52.920;6.536;2023-05-14T09:20:17;11.45;;;3.60;;
61015;SDS011;46902;52.920;6.536;2023-05-14T09:22:43;9.25;;;3.53;;
61015;SDS011;46902;52.920;6.536;2023-05-14T09:25:08;13.60;;;4.47;;
61015;SDS011;46902;52.920;6.536;2023-05-14T09:27:36;11.20;;;3.58;;
61015;SDS011;46902;52.920;6.536;2023-05-14T09:32:35;11.35;;;4.03;;
61015;SDS011;46902;52.920;6.536;2023-05-14T09:35:09;12.15;;;4.10;;
61015;SDS011;46902;52.920;6.536;2023-05-14T09:37:35;12.55;;;4.20;;
61015;SDS011;46902;52.920;6.536;2023-05-14T09:40:07;10.27;;;3.97;;
61015;SDS011;46902;52.920;6.536;2023-05-14T09:42:33;10.23;;;3.95;;
61015;SDS011;46902;52.920;6.536;2023-05-14T09:44:59;9.38;;;3.67;;
61015;SDS011;46902;52.920;6.536;2023-05-14T09:47:25;10.35;;;4.30;;
61015;SDS011;46902;52.920;6.536;2023-05-14T09:49:51;11.25;;;4.30;;
61015;SDS011;46902;52.920;6.536;2023-05-14T09:52:20;11.85;;;3.88;;
61015;SDS011;46902;52.920;6.536;2023-05-14T09:54:49;12.00;;;4.78;;
61015;SDS011;46902;52.920;6.536;2023-05-14T09:57:16;12.10;;;4.00;;
61015;SDS011;46902;52.920;6.536;2023-05-14T09:59:41;8.48;;;4.22;;
61015;SDS011;46902;52.920;6.536;2023-05-14T10:02:11;12.00;;;4.07;;
61015;SDS011;46902;52.920;6.536;2023-05-14T10:04:44;10.95;;;4.05;;
61015;SDS011;46902;52.920;6.536;2023-05-14T10:07:10;9.90;;;4.15;;
61015;SDS011;46902;52.920;6.536;2023-05-14T10:09:37;8.77;;;3.92;;
61015;SDS011;46902;52.920;6.536;2023-05-14T10:12:07;11.82;;;3.70;;
61015;SDS011;46902;52.920;6.536;2023-05-14T10:14:35;12.50;;;5.15;;
61015;SDS011;46902;52.920;6.536;2023-05-14T10:17:11;7.95;;;3.47;;
61015;SDS011;46902;52.920;6.536;2023-05-14T10:19:42;10.75;;;3.55;;
61015;SDS011;46902;52.920;6.536;2023-05-14T10:22:11;8.73;;;3.30;;
61015;SDS011;46902;52.920;6.536;2023-05-14T10:24:39;9.38;;;3.53;;
61015;SDS011;46902;52.920;6.536;2023-05-14T10:27:05;7.15;;;3.38;;
61015;SDS011;46902;52.920;6.536;2023-05-14T10:29:35;10.25;;;3.85;;
61015;SDS011;46902;52.920;6.536;2023-05-14T10:32:05;8.07;;;3.80;;
61015;SDS011;46902;52.920;6.536;2023-05-14T10:34:39;10.05;;;3.47;;
61015;SDS011;46902;52.920;6.536;2023-05-14T10:37:17;10.23;;;3.72;;
61015;SDS011;46902;52.920;6.536;2023-05-14T10:39:48;6.85;;;3.78;;
61015;SDS011;46902;52.920;6.536;2023-05-14T10:42:19;11.70;;;3.63;;
61015;SDS011;46902;52.920;6.536;2023-05-14T10:44:55;10.07;;;3.65;;
61015;SDS011;46902;52.920;6.536;2023-05-14T10:47:27;7.88;;;3.55;;
61015;SDS011;46902;52.920;6.536;2023-05-14T10:49:54;10.05;;;3.95;;
61015;SDS011;46902;52.920;6.536;2023-05-14T10:52:22;12.32;;;4.07;;
61015;SDS011;46902;52.920;6.536;2023-05-14T10:54:55;10.52;;;3.67;;
61015;SDS011;46902;52.920;6.536;2023-05-14T10:57:26;23.52;;;4.40;;
61015;SDS011;46902;52.920;6.536;2023-05-14T10:59:53;9.45;;;3.72;;
61015;SDS011;46902;52.920;6.536;2023-05-14T11:02:21;10.65;;;3.58;;
61015;SDS011;46902;52.920;6.536;2023-05-14T11:05:04;7.90;;;2.72;;
61015;SDS011;46902;52.920;6.536;2023-05-14T11:07:45;6.18;;;3.00;;
61015;SDS011;46902;52.920;6.536;2023-05-14T11:10:12;10.13;;;3.63;;
61015;SDS011;46902;52.920;6.536;2023-05-14T11:12:41;8.50;;;3.00;;
61015;SDS011;46902;52.920;6.536;2023-05-14T11:15:16;9.80;;;3.75;;
61015;SDS011;46902;52.920;6.536;2023-05-14T11:17:45;7.13;;;2.75;;
61015;SDS011;46902;52.920;6.536;2023-05-14T11:20:11;6.93;;;3.28;;
61015;SDS011;46902;52.920;6.536;2023-05-14T11:22:38;9.05;;;3.83;;
61015;SDS011;46902;52.920;6.536;2023-05-14T11:25:05;12.25;;;3.50;;
61015;SDS011;46902;52.920;6.536;2023-05-14T11:27:35;10.23;;;3.90;;
61015;SDS011;46902;52.920;6.536;2023-05-14T11:30:02;10.93;;;3.78;;
61015;SDS011;46902;52.920;6.536;2023-05-14T11:32:28;9.18;;;3.03;;
61015;SDS011;46902;52.920;6.536;2023-05-14T11:34:56;7.95;;;3.13;;
61015;SDS011;46902;52.920;6.536;2023-05-14T11:37:22;8.82;;;2.97;;
61015;SDS011;46902;52.920;6.536;2023-05-14T11:39:58;6.00;;;2.80;;
61015;SDS011;46902;52.920;6.536;2023-05-14T11:42:24;8.35;;;3.15;;
61015;SDS011;46902;52.920;6.536;2023-05-14T11:44:50;10.70;;;3.00;;
61015;SDS011;46902;52.920;6.536;2023-05-14T11:47:18;7.13;;;2.72;;
61015;SDS011;46902;52.920;6.536;2023-05-14T11:49:45;5.25;;;2.45;;
61015;SDS011;46902;52.920;6.536;2023-05-14T11:52:12;10.45;;;3.30;;
61015;SDS011;46902;52.920;6.536;2023-05-14T11:54:39;6.30;;;2.38;;
61015;SDS011;46902;52.920;6.536;2023-05-14T11:57:14;6.38;;;2.50;;
61015;SDS011;46902;52.920;6.536;2023-05-14T11:59:41;7.03;;;2.60;;
61015;SDS011;46902;52.920;6.536;2023-05-14T12:02:08;9.63;;;2.72;;
61015;SDS011;46902;52.920;6.536;2023-05-14T12:04:35;6.47;;;2.40;;
61015;SDS011;46902;52.920;6.536;2023-05-14T12:07:06;6.78;;;2.92;;
61015;SDS011;46902;52.920;6.536;2023-05-14T12:09:35;6.90;;;2.70;;
61015;SDS011;46902;52.920;6.536;2023-05-14T12:12:12;7.95;;;2.90;;
61015;SDS011;46902;52.920;6.536;2023-05-14T12:14:40;9.90;;;3.20;;
61015;SDS011;46902;52.920;6.536;2023-05-14T12:17:13;9.25;;;2.78;;
61015;SDS011;46902;52.920;6.536;2023-05-14T12:19:44;8.77;;;2.90;;
61015;SDS011;46902;52.920;6.536;2023-05-14T12:22:12;6.88;;;2.88;;
61015;SDS011;46902;52.920;6.536;2023-05-14T12:24:39;9.90;;;3.20;;
61015;SDS011;46902;52.920;6.536;2023-05-14T12:27:07;8.32;;;2.85;;
61015;SDS011;46902;52.920;6.536;2023-05-14T12:29:34;5.38;;;2.42;;
61015;SDS011;46902;52.920;6.536;2023-05-14T12:32:01;7.32;;;2.30;;
61015;SDS011;46902;52.920;6.536;2023-05-14T12:34:32;9.40;;;3.10;;
61015;SDS011;46902;52.920;6.536;2023-05-14T12:36:58;6.45;;;2.60;;
61015;SDS011;46902;52.920;6.536;2023-05-14T12:39:23;8.48;;;2.25;;
61015;SDS011;46902;52.920;6.536;2023-05-14T12:41:49;6.95;;;2.33;;
61015;SDS011;46902;52.920;6.536;2023-05-14T12:44:15;5.72;;;2.08;;
61015;SDS011;46902;52.920;6.536;2023-05-14T12:46:40;5.00;;;2.10;;
61015;SDS011;46902;52.920;6.536;2023-05-14T12:49:06;7.18;;;2.10;;
61015;SDS011;46902;52.920;6.536;2023-05-14T12:51:32;5.32;;;1.95;;
61015;SDS011;46902;52.920;6.536;2023-05-14T12:53:58;5.93;;;2.05;;
61015;SDS011;46902;52.920;6.536;2023-05-14T12:56:23;6.05;;;2.10;;
61015;SDS011;46902;52.920;6.536;2023-05-14T12:58:53;5.95;;;2.30;;
61015;SDS011;46902;52.920;6.536;2023-05-14T13:01:19;6.43;;;2.00;;
61015;SDS011;46902;52.920;6.536;2023-05-14T13:03:45;5.20;;;2.00;;
61015;SDS011;46902;52.920;6.536;2023-05-14T13:06:11;2.45;;;1.70;;
61015;SDS011;46902;52.920;6.536;2023-05-14T13:08:37;7.72;;;2.38;;
61015;SDS011;46902;52.920;6.536;2023-05-14T13:11:02;8.80;;;2.17;;
61015;SDS011;46902;52.920;6.536;2023-05-14T13:13:28;5.00;;;2.20;;
61015;SDS011;46902;52.920;6.536;2023-05-14T13:15:53;3.67;;;2.20;;
61015;SDS011;46902;52.920;6.536;2023-05-14T13:18:19;6.53;;;2.20;;
61015;SDS011;46902;52.920;6.536;2023-05-14T13:20:45;4.63;;;1.98;;
61015;SDS011;46902;52.920;6.536;2023-05-14T13:23:11;4.95;;;2.15;;
61015;SDS011;46902;52.920;6.536;2023-05-14T13:25:37;4.93;;;2.00;;
61015;SDS011;46902;52.920;6.536;2023-05-14T13:28:03;5.30;;;2.00;;
61015;SDS011;46902;52.920;6.536;2023-05-14T13:30:29;6.72;;;2.70;;
61015;SDS011;46902;52.920;6.536;2023-05-14T13:32:56;4.75;;;2.10;;
61015;SDS011;46902;52.920;6.536;2023-05-14T13:35:22;6.28;;;2.08;;
61015;SDS011;46902;52.920;6.536;2023-05-14T13:37:47;5.15;;;2.20;;
61015;SDS011;46902;52.920;6.536;2023-05-14T13:40:13;4.72;;;2.35;;
61015;SDS011;46902;52.920;6.536;2023-05-14T13:42:38;3.90;;;1.77;;
61015;SDS011;46902;52.920;6.536;2023-05-14T13:45:04;8.52;;;2.60;;
61015;SDS011;46902;52.920;6.536;2023-05-14T13:47:30;6.22;;;1.98;;
61015;SDS011;46902;52.920;6.536;2023-05-14T13:49:56;6.53;;;1.98;;
61015;SDS011;46902;52.920;6.536;2023-05-14T13:52:22;3.15;;;2.28;;
61015;SDS011;46902;52.920;6.536;2023-05-14T13:54:48;9.18;;;2.40;;
61015;SDS011;46902;52.920;6.536;2023-05-14T13:57:14;6.93;;;1.90;;
61015;SDS011;46902;52.920;6.536;2023-05-14T13:59:40;4.70;;;1.70;;
61015;SDS011;46902;52.920;6.536;2023-05-14T14:02:06;5.03;;;2.00;;
61015;SDS011;46902;52.920;6.536;2023-05-14T14:04:32;5.28;;;2.08;;
61015;SDS011;46902;52.920;6.536;2023-05-14T14:06:58;4.20;;;1.60;;
61015;SDS011;46902;52.920;6.536;2023-05-14T14:09:23;9.55;;;2.13;;
61015;SDS011;46902;52.920;6.536;2023-05-14T14:11:49;3.58;;;1.83;;
61015;SDS011;46902;52.920;6.536;2023-05-14T14:14:15;7.82;;;2.42;;
61015;SDS011;46902;52.920;6.536;2023-05-14T14:16:41;9.00;;;2.50;;
61015;SDS011;46902;52.920;6.536;2023-05-14T14:19:07;5.10;;;1.90;;
61015;SDS011;46902;52.920;6.536;2023-05-14T14:21:33;8.95;;;2.03;;
61015;SDS011;46902;52.920;6.536;2023-05-14T14:23:59;5.82;;;2.25;;
61015;SDS011;46902;52.920;6.536;2023-05-14T14:26:25;5.30;;;1.85;;
61015;SDS011;46902;52.920;6.536;2023-05-14T14:28:52;7.03;;;2.25;;
61015;SDS011;46902;52.920;6.536;2023-05-14T14:31:18;5.50;;;2.03;;
61015;SDS011;46902;52.920;6.536;2023-05-14T14:33:44;4.35;;;2.47;;
61015;SDS011;46902;52.920;6.536;2023-05-14T14:36:10;11.82;;;2.33;;
61015;SDS011;46902;52.920;6.536;2023-05-14T14:38:36;5.78;;;2.20;;
61015;SDS011;46902;52.920;6.536;2023-05-14T14:41:03;5.57;;;2.20;;
61015;SDS011;46902;52.920;6.536;2023-05-14T14:43:31;7.00;;;2.10;;